createdAt,value
2022-12-03T00:01:57.873Z,12.30
2022-12-03T00:04:24.971Z,13.53
2022-12-03T00:06:52.021Z,14.83
2022-12-03T00:09:19.103Z,11.10
2022-12-03T00:11:46.146Z,11.80
2022-12-03T00:14:13.356Z,9.60
2022-12-03T00:16:40.431Z,10.17
2022-12-03T00:19:07.821Z,12.93
2022-12-03T00:21:35.194Z,14.07
2022-12-03T00:24:02.235Z,10.20
2022-12-03T00:26:29.260Z,17.00
2022-12-03T00:28:57.715Z,12.73
2022-12-03T00:31:25.901Z,9.50
2022-12-03T00:33:53.216Z,12.20
2022-12-03T00:36:20.520Z,14.60
2022-12-03T00:38:47.606Z,8.60
2022-12-03T00:41:14.647Z,11.67
2022-12-03T00:43:41.620Z,7.10
2022-12-03T00:46:08.749Z,7.20
2022-12-03T00:48:35.820Z,8.33
2022-12-03T00:51:02.984Z,8.93
2022-12-03T00:53:30.241Z,7.03
2022-12-03T00:55:57.322Z,11.43
2022-12-03T00:58:24.342Z,17.83
2022-12-03T01:00:51.360Z,9.50
2022-12-03T01:03:18.379Z,7.23
2022-12-03T01:05:45.383Z,9.77
2022-12-03T01:08:12.484Z,8.20
2022-12-03T01:10:39.724Z,7.20
2022-12-03T01:13:06.893Z,6.00
2022-12-03T01:15:34.031Z,8.13
2022-12-03T01:18:01.198Z,9.27
2022-12-03T01:20:28.273Z,7.90
2022-12-03T01:22:55.270Z,6.30
2022-12-03T01:25:22.295Z,8.57
2022-12-03T01:27:49.573Z,7.43
2022-12-03T01:30:16.637Z,16.50
2022-12-03T01:32:43.705Z,8.67
2022-12-03T01:35:10.739Z,10.67
2022-12-03T01:37:37.850Z,7.30
2022-12-03T01:40:06.701Z,10.90
2022-12-03T01:42:36.953Z,9.73
2022-12-03T01:45:04.879Z,7.27
2022-12-03T01:47:34.770Z,9.77
2022-12-03T01:50:19.201Z,7.63
2022-12-03T01:52:46.583Z,5.47
2022-12-03T01:55:16.453Z,7.37
2022-12-03T01:57:48.480Z,11.70
2022-12-03T02:00:21.831Z,6.80
2022-12-03T02:02:51.836Z,5.50
2022-12-03T02:05:26.302Z,6.10
2022-12-03T02:07:54.183Z,5.30
2022-12-03T02:10:30.431Z,4.80
2022-12-03T02:13:09.709Z,4.40
2022-12-03T02:15:39.297Z,5.60
2022-12-03T02:18:08.156Z,6.00
2022-12-03T02:21:15.331Z,6.70
2022-12-03T02:23:44.766Z,6.67
2022-12-03T02:26:11.863Z,9.73
2022-12-03T02:28:39.082Z,7.97
2022-12-03T02:31:06.684Z,7.87
2022-12-03T02:33:33.885Z,5.37
2022-12-03T02:36:03.782Z,8.97
2022-12-03T02:38:34.354Z,5.67
2022-12-03T02:41:07.170Z,4.70
2022-12-03T02:43:34.257Z,4.60
2022-12-03T02:46:03.650Z,4.77
2022-12-03T02:48:37.251Z,7.53
2022-12-03T02:51:10.083Z,9.80
2022-12-03T02:53:44.642Z,5.13
2022-12-03T02:56:16.165Z,7.87
2022-12-03T02:58:47.017Z,4.90
2022-12-03T03:01:17.191Z,6.60
2022-12-03T03:03:46.927Z,5.10
2022-12-03T03:06:15.732Z,6.90
2022-12-03T03:08:43.484Z,6.80
2022-12-03T03:11:10.715Z,6.00
2022-12-03T03:13:39.104Z,5.97
2022-12-03T03:16:07.359Z,7.33
2022-12-03T03:18:35.367Z,6.07
2022-12-03T03:21:03.832Z,5.93
2022-12-03T03:23:31.190Z,6.60
2022-12-03T03:26:16.800Z,5.90
2022-12-03T03:28:47.806Z,7.13
2022-12-03T03:31:18.268Z,8.13
2022-12-03T03:33:48.367Z,9.23
2022-12-03T03:36:15.924Z,6.60
2022-12-03T03:38:43.091Z,8.43
2022-12-03T03:41:11.911Z,6.20
2022-12-03T03:43:42.104Z,6.83
2022-12-03T03:46:10.123Z,9.97
2022-12-03T03:48:37.567Z,6.53
2022-12-03T03:51:09.057Z,8.27
2022-12-03T03:53:41.588Z,13.60
2022-12-03T03:56:09.789Z,7.60
2022-12-03T03:58:37.345Z,11.47
2022-12-03T04:01:04.506Z,10.20
2022-12-03T04:03:31.581Z,7.20
2022-12-03T04:05:58.736Z,6.60
2022-12-03T04:08:25.772Z,15.90
2022-12-03T04:11:11.189Z,9.87
2022-12-03T04:13:38.275Z,8.10
2022-12-03T04:16:05.827Z,7.33
2022-12-03T04:18:44.917Z,10.47
2022-12-03T04:21:32.902Z,7.33
2022-12-03T04:24:00.213Z,8.93
2022-12-03T04:26:46.163Z,10.90
2022-12-03T04:29:13.625Z,6.97
2022-12-03T04:31:59.051Z,10.37
2022-12-03T04:34:44.643Z,8.40
2022-12-03T04:37:12.049Z,8.20
2022-12-03T04:39:39.712Z,11.83
2022-12-03T04:42:06.964Z,6.13
2022-12-03T04:44:35.797Z,6.97
2022-12-03T04:47:05.541Z,8.13
2022-12-03T04:49:33.866Z,10.47
2022-12-03T04:52:01.039Z,8.40
2022-12-03T04:54:28.969Z,11.87
2022-12-03T04:56:56.129Z,7.30
2022-12-03T04:59:23.175Z,8.50
2022-12-03T05:01:50.394Z,10.70
2022-12-03T05:04:17.784Z,9.97
2022-12-03T05:06:44.916Z,9.50
2022-12-03T05:09:12.734Z,8.53
2022-12-03T05:11:40.783Z,9.10
2022-12-03T05:14:08.528Z,7.83
2022-12-03T05:16:36.462Z,9.27
2022-12-03T05:19:05.002Z,10.30
2022-12-03T05:21:32.221Z,8.00
2022-12-03T05:23:59.454Z,9.83
2022-12-03T05:26:26.733Z,10.70
2022-12-03T05:28:53.843Z,10.13
2022-12-03T05:31:20.962Z,13.10
2022-12-03T05:33:48.140Z,10.40
2022-12-03T05:36:15.842Z,8.20
2022-12-03T05:38:42.855Z,10.77
2022-12-03T05:41:28.234Z,10.77
2022-12-03T05:43:55.271Z,9.10
2022-12-03T05:46:22.464Z,7.70
2022-12-03T05:48:49.573Z,9.30
2022-12-03T05:51:16.614Z,7.00
2022-12-03T05:53:43.683Z,8.60
2022-12-03T05:56:10.717Z,11.23
2022-12-03T05:58:37.683Z,8.47
2022-12-03T06:01:04.784Z,9.53
2022-12-03T06:03:31.960Z,9.57
2022-12-03T06:05:59.083Z,7.90
2022-12-03T06:08:26.133Z,9.20
2022-12-03T06:10:53.222Z,10.83
2022-12-03T06:13:20.344Z,8.43
2022-12-03T06:15:47.458Z,8.27
2022-12-03T06:18:14.636Z,11.13
2022-12-03T06:20:41.641Z,7.13
2022-12-03T06:23:08.667Z,11.93
2022-12-03T06:25:35.814Z,8.03
2022-12-03T06:28:02.851Z,9.17
2022-12-03T06:30:29.982Z,8.77
2022-12-03T06:32:57.027Z,7.97
2022-12-03T06:35:24.074Z,10.93
2022-12-03T06:37:51.070Z,12.20
2022-12-03T06:40:18.745Z,9.37
2022-12-03T06:42:45.745Z,9.87
2022-12-03T06:45:12.849Z,12.27
2022-12-03T06:47:39.912Z,10.50
2022-12-03T06:50:08.518Z,10.20
2022-12-03T06:52:35.710Z,11.23
2022-12-03T06:55:02.952Z,10.03
2022-12-03T06:57:29.948Z,9.40
2022-12-03T06:59:57.025Z,10.77
2022-12-03T07:02:24.386Z,9.50
2022-12-03T07:04:51.551Z,10.43
2022-12-03T07:07:18.646Z,8.87
2022-12-03T07:09:45.637Z,9.90
2022-12-03T07:12:12.992Z,11.87
2022-12-03T07:14:39.991Z,10.90
2022-12-03T07:17:06.978Z,8.80
2022-12-03T07:19:34.128Z,9.87
2022-12-03T07:22:01.438Z,12.27
2022-12-03T07:24:28.588Z,10.67
2022-12-03T07:26:56.055Z,9.23
2022-12-03T07:29:23.113Z,10.33
2022-12-03T07:31:50.484Z,12.27
2022-12-03T07:34:17.599Z,9.57
2022-12-03T07:36:44.698Z,10.90
2022-12-03T07:39:11.649Z,11.80
2022-12-03T07:41:53.851Z,8.30
2022-12-03T07:44:20.994Z,16.90
2022-12-03T07:46:48.298Z,10.27
2022-12-03T07:49:16.390Z,10.83
2022-12-03T07:51:45.573Z,9.50
2022-12-03T07:54:12.623Z,11.67
2022-12-03T07:56:39.706Z,15.60
2022-12-03T07:59:06.704Z,9.93
2022-12-03T08:01:33.822Z,15.80
2022-12-03T08:04:01.151Z,12.10
2022-12-03T08:06:28.228Z,11.00
2022-12-03T08:08:55.171Z,9.13
2022-12-03T08:11:22.273Z,11.20
2022-12-03T08:13:49.504Z,12.57
2022-12-03T08:16:19.554Z,12.77
2022-12-03T08:18:48.360Z,13.13
2022-12-03T08:21:20.199Z,14.67
2022-12-03T08:23:47.366Z,14.67
2022-12-03T08:26:28.103Z,10.80
2022-12-03T08:28:55.279Z,11.27
2022-12-03T08:31:32.873Z,9.70
2022-12-03T08:34:15.181Z,12.10
2022-12-03T08:36:42.620Z,14.70
2022-12-03T08:39:41.358Z,10.50
2022-12-03T08:42:35.895Z,13.20
2022-12-03T08:45:21.676Z,12.10
2022-12-03T08:47:49.912Z,11.90
2022-12-03T08:50:31.960Z,15.17
2022-12-03T08:53:14.897Z,17.30
2022-12-03T08:56:03.905Z,10.33
2022-12-03T08:58:39.635Z,11.30
2022-12-03T09:01:12.722Z,13.80
2022-12-03T09:03:52.660Z,14.27
2022-12-03T09:06:19.768Z,11.80
2022-12-03T09:08:47.081Z,9.80
2022-12-03T09:11:15.165Z,10.67
2022-12-03T09:13:42.154Z,15.07
2022-12-03T09:16:09.160Z,11.97
2022-12-03T09:18:36.384Z,12.17
2022-12-03T09:21:03.507Z,9.87
2022-12-03T09:23:30.577Z,14.20
2022-12-03T09:25:57.543Z,11.60
2022-12-03T09:28:24.527Z,23.53
2022-12-03T09:30:51.741Z,102.97
2022-12-03T09:33:18.738Z,102.00
2022-12-03T09:35:45.754Z,82.13
2022-12-03T09:38:12.755Z,71.80
2022-12-03T09:40:39.889Z,54.23
2022-12-03T09:43:07.159Z,60.23
2022-12-03T09:45:34.359Z,47.70
2022-12-03T09:48:04.081Z,38.07
2022-12-03T09:50:32.122Z,43.70
2022-12-03T09:53:02.831Z,31.00
2022-12-03T09:55:30.789Z,31.90
2022-12-03T09:57:58.319Z,27.57
2022-12-03T10:00:29.221Z,25.70
2022-12-03T10:03:02.896Z,21.80
2022-12-03T10:05:30.389Z,18.93
2022-12-03T10:08:08.425Z,19.33
2022-12-03T10:10:40.549Z,16.70
2022-12-03T10:13:11.031Z,17.17
2022-12-03T10:15:38.676Z,16.10
2022-12-03T10:18:23.902Z,14.87
2022-12-03T10:20:52.607Z,13.00
2022-12-03T10:23:27.049Z,10.83
2022-12-03T10:25:59.942Z,11.90
2022-12-03T10:28:38.930Z,13.27
2022-12-03T10:31:09.125Z,12.20
2022-12-03T10:33:37.315Z,10.47
2022-12-03T10:36:25.971Z,10.80
2022-12-03T10:39:15.190Z,14.00
2022-12-03T10:41:44.644Z,9.57
2022-12-03T10:44:23.730Z,9.50
2022-12-03T10:47:09.632Z,8.50
2022-12-03T10:49:37.328Z,9.70
2022-12-03T10:52:05.307Z,8.67
2022-12-03T10:54:34.890Z,9.27
2022-12-03T10:57:02.378Z,9.30
2022-12-03T10:59:33.298Z,9.90
2022-12-03T11:02:00.584Z,8.23
2022-12-03T11:04:32.581Z,12.03
2022-12-03T11:07:01.851Z,11.83
2022-12-03T11:09:31.764Z,8.73
2022-12-03T11:12:06.816Z,8.73
2022-12-03T11:14:53.947Z,10.63
2022-12-03T11:17:43.704Z,11.67
2022-12-03T11:20:23.294Z,8.60
2022-12-03T11:22:55.567Z,9.00
2022-12-03T11:25:25.790Z,8.10
2022-12-03T11:28:11.722Z,11.57
2022-12-03T11:30:51.033Z,9.00
2022-12-03T11:33:27.120Z,8.53
2022-12-03T11:36:03.145Z,8.20
2022-12-03T11:38:53.617Z,8.47
2022-12-03T11:41:26.170Z,8.40
2022-12-03T11:43:53.258Z,8.07
2022-12-03T11:46:27.877Z,10.30
2022-12-03T11:48:58.802Z,12.90
2022-12-03T11:51:28.476Z,9.30
2022-12-03T11:53:58.888Z,9.07
2022-12-03T11:56:30.120Z,11.80
2022-12-03T11:59:04.674Z,9.70
2022-12-03T12:01:40.341Z,12.00
2022-12-03T12:04:25.819Z,10.80
2022-12-03T12:06:53.545Z,10.43
2022-12-03T12:09:52.921Z,11.47
2022-12-03T12:12:32.346Z,9.10
2022-12-03T12:14:59.854Z,9.53
2022-12-03T12:17:37.178Z,10.00
2022-12-03T12:20:27.876Z,11.67
2022-12-03T12:22:55.701Z,11.17
2022-12-03T12:25:37.871Z,10.23
2022-12-03T12:28:04.906Z,11.60
2022-12-03T12:30:32.056Z,13.20
2022-12-03T12:33:23.394Z,13.90
2022-12-03T12:35:51.390Z,15.40
2022-12-03T12:38:20.986Z,10.20
2022-12-03T12:40:49.891Z,19.17
2022-12-03T12:43:27.930Z,14.63
2022-12-03T12:45:56.959Z,17.23
2022-12-03T12:48:26.959Z,11.50
2022-12-03T12:51:14.172Z,17.67
2022-12-03T12:53:45.071Z,10.53
2022-12-03T12:56:17.685Z,13.33
2022-12-03T12:58:44.788Z,11.83
2022-12-03T13:01:25.081Z,14.30
2022-12-03T13:03:53.126Z,12.53
2022-12-03T13:06:26.710Z,11.13
2022-12-03T13:08:54.610Z,10.57
2022-12-03T13:11:35.263Z,12.90
2022-12-03T13:14:30.519Z,31.77
2022-12-03T13:17:01.041Z,11.70
2022-12-03T13:19:30.541Z,11.63
2022-12-03T13:22:03.218Z,15.40
2022-12-03T13:24:40.637Z,12.40
2022-12-03T13:27:37.380Z,12.73
2022-12-03T13:30:07.503Z,18.60
2022-12-03T13:32:37.537Z,13.57
2022-12-03T13:35:06.267Z,13.07
2022-12-03T13:37:33.705Z,15.10
2022-12-03T13:40:17.909Z,12.27
2022-12-03T13:42:48.587Z,21.67
2022-12-03T13:45:15.517Z,14.27
2022-12-03T13:47:56.822Z,12.33
2022-12-03T13:50:46.240Z,13.50
2022-12-03T13:53:26.858Z,16.17
2022-12-03T13:56:14.123Z,15.33
2022-12-03T13:58:41.246Z,12.07
2022-12-03T14:01:08.347Z,18.47
2022-12-03T14:03:35.571Z,12.10
2022-12-03T14:06:02.587Z,11.20
2022-12-03T14:08:29.581Z,14.70
2022-12-03T14:11:00.551Z,13.40
2022-12-03T14:13:28.080Z,14.73
2022-12-03T14:15:55.345Z,12.03
2022-12-03T14:18:22.441Z,13.97
2022-12-03T14:20:49.524Z,15.73
2022-12-03T14:23:16.600Z,15.20
2022-12-03T14:25:46.317Z,15.83
2022-12-03T14:28:13.312Z,13.00
2022-12-03T14:30:40.358Z,12.53
2022-12-03T14:33:07.403Z,16.13
2022-12-03T14:35:34.455Z,16.00
2022-12-03T14:38:01.460Z,21.57
2022-12-03T14:40:28.478Z,12.20
2022-12-03T14:42:55.517Z,17.07
2022-12-03T14:45:23.468Z,12.27
2022-12-03T14:47:50.458Z,15.50
2022-12-03T14:50:17.584Z,14.00
2022-12-03T14:52:44.705Z,11.17
2022-12-03T14:55:11.681Z,12.30
2022-12-03T14:57:38.755Z,10.73
2022-12-03T15:00:07.508Z,13.33
2022-12-03T15:02:34.886Z,9.97
2022-12-03T15:05:01.984Z,16.40
2022-12-03T15:07:29.133Z,24.53
2022-12-03T15:09:56.726Z,24.53
2022-12-03T15:12:24.239Z,37.37
2022-12-03T15:14:51.289Z,24.23
2022-12-03T15:17:25.460Z,18.17
2022-12-03T15:19:56.841Z,18.07
2022-12-03T15:22:23.919Z,19.83
2022-12-03T15:24:50.896Z,15.57
2022-12-03T15:27:17.838Z,17.40
2022-12-03T15:29:44.879Z,23.20
2022-12-03T15:32:12.007Z,17.50
2022-12-03T15:34:39.049Z,16.90
2022-12-03T15:37:06.112Z,16.40
2022-12-03T15:39:35.797Z,13.80
2022-12-03T15:42:02.925Z,16.57
2022-12-03T15:44:29.903Z,10.37
2022-12-03T15:46:56.961Z,13.70
2022-12-03T15:49:24.037Z,10.90
2022-12-03T15:51:51.061Z,12.50
2022-12-03T15:54:18.255Z,14.73
2022-12-03T15:56:45.255Z,14.73
2022-12-03T15:59:13.204Z,15.80
2022-12-03T16:01:40.372Z,13.63
2022-12-03T16:04:07.451Z,12.27
2022-12-03T16:06:34.479Z,11.60
2022-12-03T16:09:01.492Z,13.73
2022-12-03T16:11:28.600Z,11.60
2022-12-03T16:13:55.602Z,15.27
2022-12-03T16:16:25.530Z,10.37
2022-12-03T16:18:52.627Z,12.60
2022-12-03T16:21:23.545Z,16.57
2022-12-03T16:23:53.734Z,18.70
2022-12-03T16:26:20.793Z,13.17
2022-12-03T16:28:47.824Z,14.57
2022-12-03T16:31:14.991Z,14.60
2022-12-03T16:33:42.127Z,13.97
2022-12-03T16:36:09.556Z,14.27
2022-12-03T16:38:36.598Z,12.23
2022-12-03T16:41:03.930Z,11.27
2022-12-03T16:43:34.019Z,15.03
2022-12-03T16:46:20.842Z,11.60
2022-12-03T16:48:48.689Z,12.23
2022-12-03T16:51:17.127Z,14.03
2022-12-03T16:53:44.252Z,11.90
2022-12-03T16:56:11.632Z,12.27
2022-12-03T16:58:38.695Z,7.97
2022-12-03T17:01:06.975Z,13.83
2022-12-03T17:03:34.380Z,16.43
2022-12-03T17:06:02.067Z,13.73
2022-12-03T17:08:29.632Z,10.07
2022-12-03T17:10:57.277Z,12.20
2022-12-03T17:13:24.436Z,9.47
2022-12-03T17:15:51.624Z,11.83
2022-12-03T17:18:18.652Z,13.23
2022-12-03T17:20:45.677Z,17.50
2022-12-03T17:23:12.854Z,11.57
2022-12-03T17:25:39.925Z,12.40
2022-12-03T17:28:07.122Z,14.27
2022-12-03T17:30:34.189Z,13.23
2022-12-03T17:33:01.436Z,11.87
2022-12-03T17:35:28.694Z,12.47
2022-12-03T17:37:55.934Z,17.53
2022-12-03T17:40:22.943Z,10.57
2022-12-03T17:42:49.965Z,10.80
2022-12-03T17:45:16.987Z,10.30
2022-12-03T17:47:43.984Z,10.30
2022-12-03T17:50:11.264Z,16.80
2022-12-03T17:52:38.363Z,26.37
2022-12-03T17:55:17.787Z,9.83
2022-12-03T17:57:50.891Z,11.20
2022-12-03T18:00:18.588Z,11.60
2022-12-03T18:02:45.602Z,12.13
2022-12-03T18:05:14.204Z,13.27
2022-12-03T18:07:41.469Z,12.47
2022-12-03T18:10:09.007Z,16.47
2022-12-03T18:12:36.026Z,9.97
2022-12-03T18:15:03.088Z,10.70
2022-12-03T18:17:30.163Z,11.20
2022-12-03T18:19:57.800Z,11.27
2022-12-03T18:22:27.680Z,15.27
2022-12-03T18:24:55.618Z,10.70
2022-12-03T18:27:22.932Z,10.90
2022-12-03T18:29:50.212Z,15.97
2022-12-03T18:32:30.471Z,8.23
2022-12-03T18:34:58.184Z,8.50
2022-12-03T18:37:28.583Z,9.80
2022-12-03T18:39:57.580Z,9.37
2022-12-03T18:42:25.216Z,11.03
2022-12-03T18:44:55.339Z,9.20
2022-12-03T18:47:28.193Z,12.70
2022-12-03T18:49:55.883Z,9.60
2022-12-03T18:52:25.122Z,6.90
2022-12-03T18:54:52.941Z,12.03
2022-12-03T18:57:20.015Z,7.77
2022-12-03T18:59:47.064Z,7.57
2022-12-03T19:05:08.680Z,7.93
2022-12-03T19:07:35.889Z,11.90
2022-12-03T19:10:03.571Z,6.67
2022-12-03T19:12:31.261Z,6.73
2022-12-03T19:14:58.245Z,6.00
2022-12-03T19:17:27.213Z,5.07
2022-12-03T19:19:54.929Z,4.77
2022-12-03T19:22:22.865Z,8.23
2022-12-03T19:24:50.466Z,7.47
2022-12-03T19:27:17.857Z,4.47
2022-12-03T19:29:48.663Z,5.83
2022-12-03T19:32:15.782Z,6.60
2022-12-03T19:34:42.798Z,5.17
2022-12-03T19:37:09.829Z,4.87
2022-12-03T19:39:36.977Z,7.40
2022-12-03T19:42:04.436Z,4.40
2022-12-03T19:44:33.880Z,6.00
2022-12-03T19:47:01.079Z,5.30
2022-12-03T19:49:28.262Z,7.63
2022-12-03T19:51:55.467Z,4.27
2022-12-03T19:54:22.485Z,5.57
2022-12-03T19:56:49.580Z,5.37
2022-12-03T19:59:16.572Z,4.83
2022-12-03T20:01:43.788Z,6.03
2022-12-03T20:04:12.068Z,4.83
2022-12-03T20:06:39.623Z,7.00
2022-12-03T20:09:12.823Z,4.77
2022-12-03T20:11:41.039Z,4.97
2022-12-03T20:14:11.740Z,4.47
2022-12-03T20:16:38.970Z,4.67
2022-12-03T20:19:07.571Z,5.40
2022-12-03T20:21:36.300Z,3.77
2022-12-03T20:24:04.211Z,4.80
2022-12-03T20:26:31.839Z,4.47
2022-12-03T20:28:59.601Z,4.80
2022-12-03T20:31:29.321Z,6.03
2022-12-03T20:33:59.838Z,14.43
2022-12-03T20:36:28.199Z,4.87
2022-12-03T20:39:01.786Z,4.77
2022-12-03T20:41:29.067Z,5.37
2022-12-03T20:43:56.470Z,3.97
2022-12-03T20:46:29.412Z,4.90
2022-12-03T20:48:57.286Z,8.33
2022-12-03T20:51:27.532Z,4.37
2022-12-03T20:53:57.096Z,5.07
2022-12-03T20:56:31.434Z,6.67
2022-12-03T20:59:05.338Z,4.90
2022-12-03T21:01:33.219Z,6.60
2022-12-03T21:04:00.455Z,11.33
2022-12-03T21:06:30.028Z,4.63
2022-12-03T21:08:58.518Z,4.50
2022-12-03T21:11:29.738Z,5.30
2022-12-03T21:13:57.314Z,5.77
2022-12-03T21:16:52.043Z,5.60
2022-12-03T21:19:14.427Z,7.50
2022-12-03T21:21:41.465Z,8.10
2022-12-03T21:24:08.837Z,5.23
2022-12-03T21:26:35.931Z,8.27
2022-12-03T21:29:02.952Z,8.53
2022-12-03T21:31:31.838Z,7.70
2022-12-03T21:33:59.498Z,17.30
2022-12-03T21:36:26.780Z,8.70
2022-12-03T21:38:53.779Z,7.03
2022-12-03T21:41:21.006Z,13.57
2022-12-03T21:43:48.129Z,11.60
2022-12-03T21:47:09.509Z,12.50
2022-12-03T21:49:04.433Z,14.43
2022-12-03T21:51:31.508Z,11.00
2022-12-03T21:53:58.526Z,13.73
2022-12-03T21:56:25.496Z,14.87
2022-12-03T21:58:52.531Z,14.03
2022-12-03T22:01:22.389Z,11.60
2022-12-03T22:03:50.482Z,14.20
2022-12-03T22:06:17.982Z,13.53
2022-12-03T22:08:45.766Z,13.17
2022-12-03T22:11:15.686Z,13.90
2022-12-03T22:13:43.088Z,11.67
2022-12-03T22:16:16.891Z,17.60
2022-12-03T22:18:44.303Z,10.60
2022-12-03T22:21:17.518Z,10.30
2022-12-03T22:23:45.056Z,11.47
2022-12-03T22:26:14.866Z,12.50
2022-12-03T22:28:47.099Z,12.80
2022-12-03T22:31:15.479Z,15.57
2022-12-03T22:33:43.651Z,12.37
2022-12-03T22:36:18.296Z,15.63
2022-12-03T22:38:47.963Z,10.60
2022-12-03T22:41:15.839Z,12.40
2022-12-03T22:43:43.066Z,14.57
2022-12-03T22:46:12.740Z,15.37
2022-12-03T22:48:42.391Z,17.20
2022-12-03T22:51:18.958Z,18.27
2022-12-03T22:53:46.220Z,26.00
2022-12-03T22:56:13.322Z,18.80
2022-12-03T22:58:41.319Z,22.00
2022-12-03T23:01:08.492Z,19.63
2022-12-03T23:03:37.104Z,22.97
2022-12-03T23:06:11.850Z,22.33
2022-12-03T23:08:38.918Z,21.77
2022-12-03T23:11:06.472Z,20.47
2022-12-03T23:13:33.712Z,27.33
2022-12-03T23:16:01.558Z,21.10
2022-12-03T23:18:28.596Z,26.53
2022-12-03T23:20:56.906Z,24.70
2022-12-03T23:23:26.913Z,23.40
2022-12-03T23:26:01.628Z,29.27
2022-12-03T23:28:30.537Z,26.20
2022-12-03T23:30:57.630Z,27.20
2022-12-03T23:33:25.419Z,26.07
2022-12-03T23:35:52.391Z,24.67
2022-12-03T23:38:19.810Z,27.97
2022-12-03T23:40:48.477Z,25.17
2022-12-03T23:43:16.154Z,27.47
2022-12-03T23:45:43.130Z,33.17
2022-12-03T23:48:10.523Z,30.10
2022-12-03T23:50:41.519Z,34.50
2022-12-03T23:53:09.089Z,27.07
2022-12-03T23:55:39.868Z,39.80
2022-12-03T23:58:06.874Z,32.40
